KMKG/MKG METAR and TAF weather

Enter ICAO airport designator
Station Type Date Time Source
KMKG METAR 2019/08/19 21:55 UTC NOAA

KMKG 192155Z 22008KT 10SM FEW250 26/18 A3003 RMK AO2 SLP166 T02610178


Station Type Date Time Source
KMKG Decoded METAR 2019/08/19 21:55 UTC NOAA

MUSKEGON COUNTY AIRPORT, MI, United States (KMKG) 43-10N 086-14W 191M
Aug 19, 2019 - 05:55 PM EDT / 2019.08.19 2155 UTC
Wind: from the SW (220 degrees) at 9 MPH (8 KT):0
Visibility: 10 mile(s):0
Sky conditions: mostly clear
Temperature: 79.0 F (26.1 C)
Dew Point: 64.0 F (17.8 C)
Relative Humidity: 60%
Pressure (altimeter): 30.03 in. Hg (1016 hPa)
ob: KMKG 192155Z 22008KT 10SM FEW250 26/18 A3003 RMK AO2 SLP166 T02610178
cycle: 22

Station Type Date Time Source
KMKG TAF 2019/08/19 18:48 UTC NOAA

TAF KMKG 191746Z 1918/2018 27006KT P6SM SCT040
FM192300 VRB03KT P6SM SKC
FM200600 00000KT 6SM BR BKN050
FM201400 17006KT P6SM SCT050

Example: see airport list